WetterOnline ( https://www.wetteronline.de )

Wetter aktuell Neuhaus am Rennweg

Aktuelles Wetter: Neuhaus (851m)

6-stündlich | Neueste Meldungen
Ortszeit Temperatur Wetter
Di, 29.11. 13:00 1.3° C Nebel
Di, 29.11. 7:00 0.2° C Nebel
Di, 29.11. 1:00 0.1° C Sprühregen
Mo, 28.11. 19:00 0.1° C Sprühregen
Mo, 28.11. 13:00 0.2° C bedeckt
Mo, 28.11. 7:00 -0.8° C bedeckt
Mo, 28.11. 1:00 -1.1° C bedeckt
So, 27.11. 19:00 -1.2° C Nebel
Ortszeit Temperatur Wetter
Di, 29.11. 16:00 1.3° C Nebel
Di, 29.11. 15:50 1.3° C Nebel
Di, 29.11. 15:40 1.3° C Nebel
Di, 29.11. 15:30 1.4° C Nebel
Di, 29.11. 15:20 1.4° C Nebel
Di, 29.11. 15:10 1.4° C Nebel
Di, 29.11. 15:00 1.4° C Nebel
Di, 29.11. 14:30 1.5° C Nebel
Di, 29.11. 14:00 1.4° C Nebel
Di, 29.11. 13:30 1.5° C Nebel
Di, 29.11. 13:00 1.3° C Nebel
Ortszeit Relative Feuchte Sichtweite
Di, 29.11. 13:00 99% 100 m
Di, 29.11. 7:00 99% 100 m
Di, 29.11. 1:00 99% 100 m
Mo, 28.11. 19:00 97% 4.1 km
Mo, 28.11. 13:00 90% 29 km
Mo, 28.11. 7:00 96% 11 km
Mo, 28.11. 1:00 98% 5.0 km
So, 27.11. 19:00 97% 4.2 km
Ortszeit Relative Feuchte Sichtweite
Di, 29.11. 16:00 99% 100 m
Di, 29.11. 15:50 99% -
Di, 29.11. 15:40 98% -
Di, 29.11. 15:30 99% 100 m
Di, 29.11. 15:20 99% -
Di, 29.11. 15:10 99% -
Di, 29.11. 15:00 99% 100 m
Di, 29.11. 14:30 99% 100 m
Di, 29.11. 14:00 99% 100 m
Di, 29.11. 13:30 99% 100 m
Di, 29.11. 13:00 99% 100 m
Ortszeit Niederschlagsmenge Niederschlagsart
Di, 29.11. 13:00 0.1 l/m2 in 6 Std. Sprühregen
Di, 29.11. 7:00 0.4 l/m2 in 12 Std. Sprühregen
Di, 29.11. 1:00 0.4 l/m2 in 6 Std. Regen
Mo, 28.11. 19:00 0.1 l/m2 in 12 Std. Sprühregen, Niederschlag
Mo, 28.11. 13:00 0.0 l/m2 in 6 Std. -
Mo, 28.11. 7:00 0.0 l/m2 in 12 Std. -
Mo, 28.11. 1:00 0.0 l/m2 in 6 Std. -
So, 27.11. 19:00 0.0 l/m2 in 12 Std. -
Ortszeit Niederschlagsmenge Niederschlagsart
Di, 29.11. 16:00 0.0 l/m2 in 1 Std. -
Di, 29.11. 15:50 keine Meldung -
Di, 29.11. 15:40 keine Meldung -
Di, 29.11. 15:30 0.0 l/m2 in 1 Std. -
Di, 29.11. 15:20 keine Meldung -
Di, 29.11. 15:10 keine Meldung -
Di, 29.11. 15:00 0.0 l/m2 in 1 Std. -
Di, 29.11. 14:30 0.0 l/m2 in 1 Std. -
Di, 29.11. 14:00 0.0 l/m2 in 1 Std. -
Di, 29.11. 13:30 0.0 l/m2 in 1 Std. -
Di, 29.11. 13:00 0.0 l/m2 in 1 Std. Sprühregen
Ortszeit Stärke Spitze Richtung
km/h Bft. km/h Grad Sektor
Di, 29.11. 13:00 7 2 18 190° S
Di, 29.11. 7:00 11 2 22 190° S
Di, 29.11. 1:00 11 2 22 200° S
Mo, 28.11. 19:00 13 3 26 180° S
Mo, 28.11. 13:00 14 3 43 190° S
Mo, 28.11. 7:00 22 4 40 180° S
Mo, 28.11. 1:00 20 4 44 190° S
So, 27.11. 19:00 20 4 31 190° S
Ortszeit Stärke Spitze Richtung
km/h Bft. km/h Grad Sektor
Di, 29.11. 16:00 6 1 9 190° S
Di, 29.11. 15:50 6 1 - 190° S
Di, 29.11. 15:40 6 1 - 200° S
Di, 29.11. 15:30 7 2 11 190° S
Di, 29.11. 15:20 7 2 - 190° S
Di, 29.11. 15:10 6 1 - 190° S
Di, 29.11. 15:00 7 2 11 190° S
Di, 29.11. 14:30 7 2 13 200° S
Di, 29.11. 14:00 7 2 18 190° S
Di, 29.11. 13:30 11 2 18 180° S
Di, 29.11. 13:00 7 2 14 190° S
Ortszeit Untergrenze Bedeckung Gattung
total tief tief mittel hoch
Di, 29.11. 13:00 <30 m 8/8 0/8 - - -
Di, 29.11. 7:00 <30 m 8/8 0/8 - - -
Di, 29.11. 1:00 <30 m 8/8 0/8 - - -
Mo, 28.11. 19:00 30 m 8/8 8/8 - - -
Mo, 28.11. 13:00 1800 m 8/8 8/8 - - -
Mo, 28.11. 7:00 30 m 8/8 8/8 - - -
Mo, 28.11. 1:00 30 m 8/8 8/8 - - -
So, 27.11. 19:00 30 m 8/8 7/8 - - -
Ortszeit Bedeckungsgrad in Achtel und Wolkenuntergrenze
Di, 29.11. 16:00 8(<30m)
Di, 29.11. 15:50 8(<30m)
Di, 29.11. 15:40 8
Di, 29.11. 15:30 8(<30m)
Di, 29.11. 15:20 8(<30m)
Di, 29.11. 15:10 8
Di, 29.11. 15:00 8(<30m)
Di, 29.11. 14:30 8(<30m)
Di, 29.11. 14:00 8(<30m)
Di, 29.11. 13:30 8(<30m)
Di, 29.11. 13:00 8(<30m)
Ortszeit Stationsdruck (hPa) Tendenz (hPa in 3 Std.)
Di, 29.11. 13:00 917 + 0,7
Di, 29.11. 7:00 916 + 0,9
Di, 29.11. 1:00 915 - 0,1
Mo, 28.11. 19:00 914 + 0,4
Mo, 28.11. 13:00 914 - 0,5
Mo, 28.11. 7:00 915 - 1,2
Mo, 28.11. 1:00 918 - 1,1
So, 27.11. 19:00 921 - 2,0
Ortszeit Stationsdruck (hPa) Tendenz (hPa in 3 Std.)
Di, 29.11. 16:00 918 + 0,7
Di, 29.11. 15:50 918 keine Meldung
Di, 29.11. 15:40 918 keine Meldung
Di, 29.11. 15:30 918 + 0,7
Di, 29.11. 15:20 918 keine Meldung
Di, 29.11. 15:10 918 keine Meldung
Di, 29.11. 15:00 918 + 0,7
Di, 29.11. 14:30 918 + 0,6
Di, 29.11. 14:00 918 + 0,6
Di, 29.11. 13:30 917 + 0,6
Di, 29.11. 13:00 917 + 0,7
Ortszeit Schneehöhe (cm)
Di, 29.11. 13:00 0
Di, 29.11. 7:00 0
Di, 29.11. 1:00 0
Mo, 28.11. 19:00 0
Mo, 28.11. 13:00 0
Mo, 28.11. 7:00 0
Mo, 28.11. 1:00 0
So, 27.11. 19:00 0
Ortszeit Schneehöhe (cm)
Di, 29.11. 16:00 0
Di, 29.11. 15:50 0
Di, 29.11. 15:40 0
Di, 29.11. 15:30 0
Di, 29.11. 15:20 0
Di, 29.11. 15:10 0
Di, 29.11. 15:00 0
Di, 29.11. 14:30 0
Di, 29.11. 14:00 0
Di, 29.11. 13:30 0
Di, 29.11. 13:00 0
Link zu dieser Seite / Seite empfehlen

Das Wetter in ...